sensor_id;sensor_type;location;lat;lon;timestamp;temperature;humidity
26081;DHT22;13991;51.174;4.438;2024-03-23T00:53:48;10.60;99.90
26081;DHT22;13991;51.174;4.438;2024-03-23T00:56:14;10.60;99.90
26081;DHT22;13991;51.174;4.438;2024-03-23T00:58:39;10.50;99.90
26081;DHT22;13991;51.174;4.438;2024-03-23T01:01:05;10.50;99.90
26081;DHT22;13991;51.174;4.438;2024-03-23T01:03:31;10.50;99.90
26081;DHT22;13991;51.174;4.438;2024-03-23T01:06:00;10.50;99.90
26081;DHT22;13991;51.174;4.438;2024-03-23T01:08:26;10.50;99.90
26081;DHT22;13991;51.174;4.438;2024-03-23T01:10:59;10.50;99.90
26081;DHT22;13991;51.174;4.438;2024-03-23T01:13:25;10.50;99.90
26081;DHT22;13991;51.174;4.438;2024-03-23T01:15:51;10.50;99.90
26081;DHT22;13991;51.174;4.438;2024-03-23T01:18:17;10.40;99.90
26081;DHT22;13991;51.174;4.438;2024-03-23T01:20:43;10.40;99.90
26081;DHT22;13991;51.174;4.438;2024-03-23T01:23:10;10.20;99.90
26081;DHT22;13991;51.174;4.438;2024-03-23T01:25:35;10.30;99.90
26081;DHT22;13991;51.174;4.438;2024-03-23T01:28:01;10.30;99.90
26081;DHT22;13991;51.174;4.438;2024-03-23T01:30:27;10.20;99.90
26081;DHT22;13991;51.174;4.438;2024-03-23T01:32:52;10.20;99.90
26081;DHT22;13991;51.174;4.438;2024-03-23T01:35:19;10.10;99.90
26081;DHT22;13991;51.174;4.438;2024-03-23T01:37:44;10.00;99.90
26081;DHT22;13991;51.174;4.438;2024-03-23T01:40:10;9.90;99.90
26081;DHT22;13991;51.174;4.438;2024-03-23T01:42:39;9.90;99.90
26081;DHT22;13991;51.174;4.438;2024-03-23T01:45:07;9.80;99.90
26081;DHT22;13991;51.174;4.438;2024-03-23T01:47:37;9.80;99.90
26081;DHT22;13991;51.174;4.438;2024-03-23T01:50:02;9.90;99.90
26081;DHT22;13991;51.174;4.438;2024-03-23T01:52:28;9.70;99.90
26081;DHT22;13991;51.174;4.438;2024-03-23T01:54:54;9.70;99.90
26081;DHT22;13991;51.174;4.438;2024-03-23T01:57:20;9.70;99.90
26081;DHT22;13991;51.174;4.438;2024-03-23T01:59:49;9.80;99.90
26081;DHT22;13991;51.174;4.438;2024-03-23T02:02:15;9.80;99.90
26081;DHT22;13991;51.174;4.438;2024-03-23T02:04:43;9.80;99.90
26081;DHT22;13991;51.174;4.438;2024-03-23T02:07:08;9.80;99.90
26081;DHT22;13991;51.174;4.438;2024-03-23T02:09:34;9.80;99.90
26081;DHT22;13991;51.174;4.438;2024-03-23T02:12:02;9.80;99.90
26081;DHT22;13991;51.174;4.438;2024-03-23T02:14:28;9.80;99.90
26081;DHT22;13991;51.174;4.438;2024-03-23T02:16:54;9.80;99.90
26081;DHT22;13991;51.174;4.438;2024-03-23T02:19:19;9.70;99.90
26081;DHT22;13991;51.174;4.438;2024-03-23T02:21:45;9.60;99.90
26081;DHT22;13991;51.174;4.438;2024-03-23T02:24:12;9.80;99.90
26081;DHT22;13991;51.174;4.438;2024-03-23T02:26:38;9.50;99.90
26081;DHT22;13991;51.174;4.438;2024-03-23T02:29:03;9.60;99.90
26081;DHT22;13991;51.174;4.438;2024-03-23T02:31:29;9.50;99.90
26081;DHT22;13991;51.174;4.438;2024-03-23T02:33:54;9.50;99.90
26081;DHT22;13991;51.174;4.438;2024-03-23T02:36:20;9.40;99.90
26081;DHT22;13991;51.174;4.438;2024-03-23T02:38:46;9.40;99.90
26081;DHT22;13991;51.174;4.438;2024-03-23T02:41:12;9.30;99.90
26081;DHT22;13991;51.174;4.438;2024-03-23T02:43:39;9.20;99.90
26081;DHT22;13991;51.174;4.438;2024-03-23T02:46:05;9.30;99.90
26081;DHT22;13991;51.174;4.438;2024-03-23T02:48:30;9.40;99.90
26081;DHT22;13991;51.174;4.438;2024-03-23T02:50:56;9.30;99.90
26081;DHT22;13991;51.174;4.438;2024-03-23T02:53:22;9.20;99.90
26081;DHT22;13991;51.174;4.438;2024-03-23T02:55:47;9.20;99.90
26081;DHT22;13991;51.174;4.438;2024-03-23T02:58:13;9.30;99.90
26081;DHT22;13991;51.174;4.438;2024-03-23T03:00:38;9.10;99.90
26081;DHT22;13991;51.174;4.438;2024-03-23T03:03:04;9.10;99.90
26081;DHT22;13991;51.174;4.438;2024-03-23T03:05:30;9.00;99.90
26081;DHT22;13991;51.174;4.438;2024-03-23T03:07:55;9.10;99.90
26081;DHT22;13991;51.174;4.438;2024-03-23T03:10:21;9.10;99.90
26081;DHT22;13991;51.174;4.438;2024-03-23T03:12:47;9.20;99.90
26081;DHT22;13991;51.174;4.438;2024-03-23T03:15:13;9.00;99.90
26081;DHT22;13991;51.174;4.438;2024-03-23T03:17:38;9.00;99.90
26081;DHT22;13991;51.174;4.438;2024-03-23T03:20:04;9.00;99.90
26081;DHT22;13991;51.174;4.438;2024-03-23T03:22:30;9.00;99.90
26081;DHT22;13991;51.174;4.438;2024-03-23T03:24:56;9.00;99.90
26081;DHT22;13991;51.174;4.438;2024-03-23T03:27:21;9.00;99.90
26081;DHT22;13991;51.174;4.438;2024-03-23T03:29:48;9.00;99.90
26081;DHT22;13991;51.174;4.438;2024-03-23T03:32:14;9.00;99.90
26081;DHT22;13991;51.174;4.438;2024-03-23T03:34:39;8.90;99.90
26081;DHT22;13991;51.174;4.438;2024-03-23T03:37:05;8.90;99.90
26081;DHT22;13991;51.174;4.438;2024-03-23T03:39:31;8.90;99.90
26081;DHT22;13991;51.174;4.438;2024-03-23T03:41:56;8.90;99.90
26081;DHT22;13991;51.174;4.438;2024-03-23T03:44:22;8.80;99.90
26081;DHT22;13991;51.174;4.438;2024-03-23T03:46:48;8.80;99.90
26081;DHT22;13991;51.174;4.438;2024-03-23T03:49:13;8.70;99.90
26081;DHT22;13991;51.174;4.438;2024-03-23T03:51:39;8.70;99.90
26081;DHT22;13991;51.174;4.438;2024-03-23T03:54:04;8.60;99.90
26081;DHT22;13991;51.174;4.438;2024-03-23T03:56:30;8.70;99.90
26081;DHT22;13991;51.174;4.438;2024-03-23T03:58:56;8.70;99.90
26081;DHT22;13991;51.174;4.438;2024-03-23T04:01:21;8.60;99.90
26081;DHT22;13991;51.174;4.438;2024-03-23T04:03:47;8.60;99.90
26081;DHT22;13991;51.174;4.438;2024-03-23T04:06:18;8.70;99.90
26081;DHT22;13991;51.174;4.438;2024-03-23T04:08:44;8.70;99.90
26081;DHT22;13991;51.174;4.438;2024-03-23T04:11:10;8.70;99.90
26081;DHT22;13991;51.174;4.438;2024-03-23T04:13:36;8.70;99.90
26081;DHT22;13991;51.174;4.438;2024-03-23T04:16:01;8.70;99.90
26081;DHT22;13991;51.174;4.438;2024-03-23T04:18:27;8.70;99.90
26081;DHT22;13991;51.174;4.438;2024-03-23T04:20:53;8.80;99.90
26081;DHT22;13991;51.174;4.438;2024-03-23T04:23:18;8.70;99.90
26081;DHT22;13991;51.174;4.438;2024-03-23T04:25:44;8.70;99.90
26081;DHT22;13991;51.174;4.438;2024-03-23T04:28:09;8.70;99.90
26081;DHT22;13991;51.174;4.438;2024-03-23T04:30:35;8.70;99.90
26081;DHT22;13991;51.174;4.438;2024-03-23T04:33:02;8.80;99.90
26081;DHT22;13991;51.174;4.438;2024-03-23T04:35:28;8.80;99.90
26081;DHT22;13991;51.174;4.438;2024-03-23T04:37:53;8.90;99.90
26081;DHT22;13991;51.174;4.438;2024-03-23T04:40:21;8.90;99.90
26081;DHT22;13991;51.174;4.438;2024-03-23T04:42:47;8.90;99.90
26081;DHT22;13991;51.174;4.438;2024-03-23T04:45:12;8.90;99.90
26081;DHT22;13991;51.174;4.438;2024-03-23T04:47:38;8.90;99.90
26081;DHT22;13991;51.174;4.438;2024-03-23T04:50:04;8.80;99.90
26081;DHT22;13991;51.174;4.438;2024-03-23T04:52:30;8.70;99.90
26081;DHT22;13991;51.174;4.438;2024-03-23T04:54:56;8.80;99.90
26081;DHT22;13991;51.174;4.438;2024-03-23T04:57:22;8.70;99.90
26081;DHT22;13991;51.174;4.438;2024-03-23T04:59:48;8.60;99.90
26081;DHT22;13991;51.174;4.438;2024-03-23T05:02:14;8.70;99.90
26081;DHT22;13991;51.174;4.438;2024-03-23T05:04:39;8.60;99.90
26081;DHT22;13991;51.174;4.438;2024-03-23T05:07:08;8.60;99.90
26081;DHT22;13991;51.174;4.438;2024-03-23T05:09:33;8.50;99.90
26081;DHT22;13991;51.174;4.438;2024-03-23T05:12:02;8.50;99.90
26081;DHT22;13991;51.174;4.438;2024-03-23T05:14:28;8.40;99.90
26081;DHT22;13991;51.174;4.438;2024-03-23T05:16:54;8.40;99.90
26081;DHT22;13991;51.174;4.438;2024-03-23T05:19:20;8.40;99.90
26081;DHT22;13991;51.174;4.438;2024-03-23T05:21:46;8.40;99.90
26081;DHT22;13991;51.174;4.438;2024-03-23T05:24:11;8.50;99.90
26081;DHT22;13991;51.174;4.438;2024-03-23T05:26:37;8.40;99.90
26081;DHT22;13991;51.174;4.438;2024-03-23T05:29:03;8.40;99.90
26081;DHT22;13991;51.174;4.438;2024-03-23T05:31:30;8.40;99.90
26081;DHT22;13991;51.174;4.438;2024-03-23T05:33:56;8.40;99.90
26081;DHT22;13991;51.174;4.438;2024-03-23T05:36:22;8.50;99.90
26081;DHT22;13991;51.174;4.438;2024-03-23T05:38:50;8.40;99.90
26081;DHT22;13991;51.174;4.438;2024-03-23T05:41:15;8.40;99.90
26081;DHT22;13991;51.174;4.438;2024-03-23T05:43:41;8.40;99.90
26081;DHT22;13991;51.174;4.438;2024-03-23T05:46:07;8.50;99.90
26081;DHT22;13991;51.174;4.438;2024-03-23T05:48:35;8.50;99.90
26081;DHT22;13991;51.174;4.438;2024-03-23T05:51:01;8.60;99.90
26081;DHT22;13991;51.174;4.438;2024-03-23T05:53:28;8.60;99.90
26081;DHT22;13991;51.174;4.438;2024-03-23T05:56:03;8.60;99.90
26081;DHT22;13991;51.174;4.438;2024-03-23T05:58:29;8.70;99.90
26081;DHT22;13991;51.174;4.438;2024-03-23T06:00:59;8.70;99.90
26081;DHT22;13991;51.174;4.438;2024-03-23T06:03:28;8.70;99.90
26081;DHT22;13991;51.174;4.438;2024-03-23T06:05:55;8.70;99.90
26081;DHT22;13991;51.174;4.438;2024-03-23T06:08:21;8.70;99.90
26081;DHT22;13991;51.174;4.438;2024-03-23T06:10:47;8.70;99.90
26081;DHT22;13991;51.174;4.438;2024-03-23T06:13:13;8.70;99.90
26081;DHT22;13991;51.174;4.438;2024-03-23T06:15:39;8.80;99.90
26081;DHT22;13991;51.174;4.438;2024-03-23T06:18:05;8.80;99.90
26081;DHT22;13991;51.174;4.438;2024-03-23T06:20:33;8.80;99.90
26081;DHT22;13991;51.174;4.438;2024-03-23T06:22:58;8.80;99.90
26081;DHT22;13991;51.174;4.438;2024-03-23T06:25:24;8.80;99.90
26081;DHT22;13991;51.174;4.438;2024-03-23T06:27:50;8.80;99.90
26081;DHT22;13991;51.174;4.438;2024-03-23T06:30:15;8.80;99.90
26081;DHT22;13991;51.174;4.438;2024-03-23T06:32:41;8.80;99.90
26081;DHT22;13991;51.174;4.438;2024-03-23T06:35:08;8.80;99.90
26081;DHT22;13991;51.174;4.438;2024-03-23T06:37:36;8.80;99.90
26081;DHT22;13991;51.174;4.438;2024-03-23T06:40:02;8.80;99.90
26081;DHT22;13991;51.174;4.438;2024-03-23T06:42:30;8.80;99.90
26081;DHT22;13991;51.174;4.438;2024-03-23T06:44:55;8.80;99.90
26081;DHT22;13991;51.174;4.438;2024-03-23T06:47:21;8.90;99.90
26081;DHT22;13991;51.174;4.438;2024-03-23T06:49:47;9.00;99.90
26081;DHT22;13991;51.174;4.438;2024-03-23T06:52:12;9.00;99.90
26081;DHT22;13991;51.174;4.438;2024-03-23T06:54:38;9.00;99.90
26081;DHT22;13991;51.174;4.438;2024-03-23T06:57:04;9.10;99.90
26081;DHT22;13991;51.174;4.438;2024-03-23T06:59:29;9.10;99.90
26081;DHT22;13991;51.174;4.438;2024-03-23T07:01:55;9.20;99.90
26081;DHT22;13991;51.174;4.438;2024-03-23T07:04:21;9.20;99.90
26081;DHT22;13991;51.174;4.438;2024-03-23T07:06:46;9.30;99.90
26081;DHT22;13991;51.174;4.438;2024-03-23T07:09:12;9.30;99.90
26081;DHT22;13991;51.174;4.438;2024-03-23T07:11:38;9.30;99.90
26081;DHT22;13991;51.174;4.438;2024-03-23T07:14:03;9.50;99.90
26081;DHT22;13991;51.174;4.438;2024-03-23T07:16:29;9.70;99.90
26081;DHT22;13991;51.174;4.438;2024-03-23T07:18:55;9.80;99.90
26081;DHT22;13991;51.174;4.438;2024-03-23T07:21:21;9.90;99.90
26081;DHT22;13991;51.174;4.438;2024-03-23T07:23:48;9.90;99.90
26081;DHT22;13991;51.174;4.438;2024-03-23T07:26:14;9.80;99.90
26081;DHT22;13991;51.174;4.438;2024-03-23T07:28:40;9.70;99.90
26081;DHT22;13991;51.174;4.438;2024-03-23T07:31:12;9.50;99.90
26081;DHT22;13991;51.174;4.438;2024-03-23T07:33:42;9.60;99.90
26081;DHT22;13991;51.174;4.438;2024-03-23T07:36:08;9.60;99.90
26081;DHT22;13991;51.174;4.438;2024-03-23T07:38:34;9.60;99.90
26081;DHT22;13991;51.174;4.438;2024-03-23T07:41:07;9.70;99.90
26081;DHT22;13991;51.174;4.438;2024-03-23T07:43:34;9.60;99.90
26081;DHT22;13991;51.174;4.438;2024-03-23T07:46:00;9.70;99.90
26081;DHT22;13991;51.174;4.438;2024-03-23T07:48:27;9.60;99.90
26081;DHT22;13991;51.174;4.438;2024-03-23T07:51:17;9.70;99.90
26081;DHT22;13991;51.174;4.438;2024-03-23T07:53:44;9.80;99.90
26081;DHT22;13991;51.174;4.438;2024-03-23T07:56:10;10.20;99.90
26081;DHT22;13991;51.174;4.438;2024-03-23T07:58:36;10.30;99.90
26081;DHT22;13991;51.174;4.438;2024-03-23T08:01:13;10.50;99.90
26081;DHT22;13991;51.174;4.438;2024-03-23T08:03:41;10.70;99.90
26081;DHT22;13991;51.174;4.438;2024-03-23T08:08:34;10.70;99.90
26081;DHT22;13991;51.174;4.438;2024-03-23T08:10:59;10.50;99.90
26081;DHT22;13991;51.174;4.438;2024-03-23T08:13:25;10.40;99.90
26081;DHT22;13991;51.174;4.438;2024-03-23T08:15:51;10.40;99.90
26081;DHT22;13991;51.174;4.438;2024-03-23T08:18:17;10.30;99.90
26081;DHT22;13991;51.174;4.438;2024-03-23T08:20:43;10.30;99.90
26081;DHT22;13991;51.174;4.438;2024-03-23T08:23:09;10.30;99.90
26081;DHT22;13991;51.174;4.438;2024-03-23T08:25:35;10.30;99.90
26081;DHT22;13991;51.174;4.438;2024-03-23T08:28:01;10.30;99.90
26081;DHT22;13991;51.174;4.438;2024-03-23T08:30:28;10.30;99.90
26081;DHT22;13991;51.174;4.438;2024-03-23T08:32:54;10.40;99.90
26081;DHT22;13991;51.174;4.438;2024-03-23T08:35:20;10.40;99.90
26081;DHT22;13991;51.174;4.438;2024-03-23T08:37:45;10.40;99.90
26081;DHT22;13991;51.174;4.438;2024-03-23T08:40:12;10.40;99.90
26081;DHT22;13991;51.174;4.438;2024-03-23T08:42:37;10.40;99.90
26081;DHT22;13991;51.174;4.438;2024-03-23T08:45:03;10.40;99.90
26081;DHT22;13991;51.174;4.438;2024-03-23T08:47:29;10.50;99.90
26081;DHT22;13991;51.174;4.438;2024-03-23T08:49:55;10.50;99.90
26081;DHT22;13991;51.174;4.438;2024-03-23T08:52:20;10.20;99.90
26081;DHT22;13991;51.174;4.438;2024-03-23T08:54:48;10.20;99.90
26081;DHT22;13991;51.174;4.438;2024-03-23T08:57:14;10.10;99.90
26081;DHT22;13991;51.174;4.438;2024-03-23T08:59:39;9.90;99.90
26081;DHT22;13991;51.174;4.438;2024-03-23T09:02:05;9.90;99.90
26081;DHT22;13991;51.174;4.438;2024-03-23T09:04:31;10.00;99.90
26081;DHT22;13991;51.174;4.438;2024-03-23T09:17:10;10.30;99.90
26081;DHT22;13991;51.174;4.438;2024-03-23T09:19:36;10.70;99.90
26081;DHT22;13991;51.174;4.438;2024-03-23T09:22:01;10.90;99.90
26081;DHT22;13991;51.174;4.438;2024-03-23T09:24:28;11.10;99.90
26081;DHT22;13991;51.174;4.438;2024-03-23T09:26:54;11.00;99.90
26081;DHT22;13991;51.174;4.438;2024-03-23T09:29:20;10.90;99.90
26081;DHT22;13991;51.174;4.438;2024-03-23T09:31:46;10.80;99.90
26081;DHT22;13991;51.174;4.438;2024-03-23T09:34:12;10.80;99.90
26081;DHT22;13991;51.174;4.438;2024-03-23T09:36:37;10.70;99.90
26081;DHT22;13991;51.174;4.438;2024-03-23T09:39:03;10.70;99.90
26081;DHT22;13991;51.174;4.438;2024-03-23T09:41:30;10.60;99.90
26081;DHT22;13991;51.174;4.438;2024-03-23T09:43:56;10.60;99.90
26081;DHT22;13991;51.174;4.438;2024-03-23T09:46:22;10.50;99.90
26081;DHT22;13991;51.174;4.438;2024-03-23T09:48:48;10.60;99.90
26081;DHT22;13991;51.174;4.438;2024-03-23T09:51:14;10.40;99.90
26081;DHT22;13991;51.174;4.438;2024-03-23T09:53:40;10.20;99.90
26081;DHT22;13991;51.174;4.438;2024-03-23T09:56:07;10.10;99.90
26081;DHT22;13991;51.174;4.438;2024-03-23T09:58:34;10.00;99.90
26081;DHT22;13991;51.174;4.438;2024-03-23T10:00:59;10.10;99.90
26081;DHT22;13991;51.174;4.438;2024-03-23T10:03:27;10.30;99.90
26081;DHT22;13991;51.174;4.438;2024-03-23T10:08:29;10.20;99.90
26081;DHT22;13991;51.174;4.438;2024-03-23T10:11:16;10.30;99.90
26081;DHT22;13991;51.174;4.438;2024-03-23T10:13:43;10.20;99.90
26081;DHT22;13991;51.174;4.438;2024-03-23T10:16:09;10.10;99.90
26081;DHT22;13991;51.174;4.438;2024-03-23T10:57:23;8.50;99.90
26081;DHT22;13991;51.174;4.438;2024-03-23T11:02:21;9.20;99.90
26081;DHT22;13991;51.174;4.438;2024-03-23T11:04:47;9.70;99.90
26081;DHT22;13991;51.174;4.438;2024-03-23T11:07:30;10.00;99.90
26081;DHT22;13991;51.174;4.438;2024-03-23T11:09:57;10.20;99.90
26081;DHT22;13991;51.174;4.438;2024-03-23T11:15:11;10.50;99.90
26081;DHT22;13991;51.174;4.438;2024-03-23T11:17:37;10.60;99.90
26081;DHT22;13991;51.174;4.438;2024-03-23T11:25:25;11.00;99.90
26081;DHT22;13991;51.174;4.438;2024-03-23T11:27:58;11.10;99.90
26081;DHT22;13991;51.174;4.438;2024-03-23T11:30:34;10.90;99.90
26081;DHT22;13991;51.174;4.438;2024-03-23T11:33:02;10.70;99.90
26081;DHT22;13991;51.174;4.438;2024-03-23T11:35:33;10.60;99.90
26081;DHT22;13991;51.174;4.438;2024-03-23T11:38:10;10.50;99.90
26081;DHT22;13991;51.174;4.438;2024-03-23T11:40:40;10.50;99.90
26081;DHT22;13991;51.174;4.438;2024-03-23T11:43:08;10.50;99.90
26081;DHT22;13991;51.174;4.438;2024-03-23T11:45:37;10.50;99.90
26081;DHT22;13991;51.174;4.438;2024-03-23T11:48:06;10.70;99.90
26081;DHT22;13991;51.174;4.438;2024-03-23T11:50:35;10.90;99.90
26081;DHT22;13991;51.174;4.438;2024-03-23T11:53:17;11.20;99.90
26081;DHT22;13991;51.174;4.438;2024-03-23T11:55:52;11.40;99.90
26081;DHT22;13991;51.174;4.438;2024-03-23T11:58:20;11.40;99.90
26081;DHT22;13991;51.174;4.438;2024-03-23T12:03:17;11.20;99.90
26081;DHT22;13991;51.174;4.438;2024-03-23T12:05:49;10.90;99.90
26081;DHT22;13991;51.174;4.438;2024-03-23T12:08:33;10.60;99.90
26081;DHT22;13991;51.174;4.438;2024-03-23T12:11:07;10.60;99.90
26081;DHT22;13991;51.174;4.438;2024-03-23T12:13:34;10.70;99.90
26081;DHT22;13991;51.174;4.438;2024-03-23T12:18:35;11.10;99.90
26081;DHT22;13991;51.174;4.438;2024-03-23T12:26:13;11.20;99.90
26081;DHT22;13991;51.174;4.438;2024-03-23T12:28:48;11.10;99.90
26081;DHT22;13991;51.174;4.438;2024-03-23T12:39:03;11.10;99.90
26081;DHT22;13991;51.174;4.438;2024-03-23T12:46:42;11.00;99.90
26081;DHT22;13991;51.174;4.438;2024-03-23T12:49:08;11.10;99.90
26081;DHT22;13991;51.174;4.438;2024-03-23T12:51:34;11.10;99.90
26081;DHT22;13991;51.174;4.438;2024-03-23T12:54:00;11.40;99.90
26081;DHT22;13991;51.174;4.438;2024-03-23T12:56:25;11.80;99.90
26081;DHT22;13991;51.174;4.438;2024-03-23T12:58:53;12.20;99.90
26081;DHT22;13991;51.174;4.438;2024-03-23T13:01:21;12.40;99.90
26081;DHT22;13991;51.174;4.438;2024-03-23T13:03:47;12.50;99.90
26081;DHT22;13991;51.174;4.438;2024-03-23T13:06:13;12.30;99.90
26081;DHT22;13991;51.174;4.438;2024-03-23T13:08:39;12.10;99.90
26081;DHT22;13991;51.174;4.438;2024-03-23T13:11:09;11.60;99.90
26081;DHT22;13991;51.174;4.438;2024-03-23T13:13:36;11.30;99.90
26081;DHT22;13991;51.174;4.438;2024-03-23T13:16:03;10.90;99.90
26081;DHT22;13991;51.174;4.438;2024-03-23T13:18:30;10.40;99.90
26081;DHT22;13991;51.174;4.438;2024-03-23T13:20:56;10.30;99.90
26081;DHT22;13991;51.174;4.438;2024-03-23T13:23:21;10.20;99.90
26081;DHT22;13991;51.174;4.438;2024-03-23T13:25:55;10.00;99.90
26081;DHT22;13991;51.174;4.438;2024-03-23T13:28:22;9.90;99.90
26081;DHT22;13991;51.174;4.438;2024-03-23T13:30:55;9.70;99.90
26081;DHT22;13991;51.174;4.438;2024-03-23T13:33:21;9.00;99.90
26081;DHT22;13991;51.174;4.438;2024-03-23T13:35:55;8.70;99.90
26081;DHT22;13991;51.174;4.438;2024-03-23T13:38:22;8.30;99.90
26081;DHT22;13991;51.174;4.438;2024-03-23T13:43:17;8.30;99.90
26081;DHT22;13991;51.174;4.438;2024-03-23T13:45:43;8.20;99.90
26081;DHT22;13991;51.174;4.438;2024-03-23T13:48:08;8.30;99.90
26081;DHT22;13991;51.174;4.438;2024-03-23T13:50:34;8.40;99.90
26081;DHT22;13991;51.174;4.438;2024-03-23T13:53:00;8.60;99.90
26081;DHT22;13991;51.174;4.438;2024-03-23T13:55:25;9.00;99.90
26081;DHT22;13991;51.174;4.438;2024-03-23T13:57:51;9.40;99.90
26081;DHT22;13991;51.174;4.438;2024-03-23T14:00:17;9.60;99.90
26081;DHT22;13991;51.174;4.438;2024-03-23T14:02:44;9.70;99.90
26081;DHT22;13991;51.174;4.438;2024-03-23T14:05:10;9.80;99.90
26081;DHT22;13991;51.174;4.438;2024-03-23T14:07:36;10.00;99.90
26081;DHT22;13991;51.174;4.438;2024-03-23T14:10:03;10.20;99.90
26081;DHT22;13991;51.174;4.438;2024-03-23T14:12:31;10.30;99.90
26081;DHT22;13991;51.174;4.438;2024-03-23T14:14:56;10.30;99.90
26081;DHT22;13991;51.174;4.438;2024-03-23T14:17:22;10.40;99.90
26081;DHT22;13991;51.174;4.438;2024-03-23T14:19:48;10.60;99.90
26081;DHT22;13991;51.174;4.438;2024-03-23T14:22:15;10.60;99.90
26081;DHT22;13991;51.174;4.438;2024-03-23T14:24:45;10.70;99.90
26081;DHT22;13991;51.174;4.438;2024-03-23T14:27:11;10.70;99.90
26081;DHT22;13991;51.174;4.438;2024-03-23T14:29:36;10.80;99.90
26081;DHT22;13991;51.174;4.438;2024-03-23T14:32:02;10.90;99.90
26081;DHT22;13991;51.174;4.438;2024-03-23T14:34:28;11.00;99.90
26081;DHT22;13991;51.174;4.438;2024-03-23T14:36:54;11.20;99.90
26081;DHT22;13991;51.174;4.438;2024-03-23T14:39:23;11.20;99.90
26081;DHT22;13991;51.174;4.438;2024-03-23T14:41:50;11.30;99.90
26081;DHT22;13991;51.174;4.438;2024-03-23T14:44:16;11.30;99.90
26081;DHT22;13991;51.174;4.438;2024-03-23T14:46:45;11.40;99.90
26081;DHT22;13991;51.174;4.438;2024-03-23T14:49:15;11.50;99.90
26081;DHT22;13991;51.174;4.438;2024-03-23T14:51:43;11.60;99.90
26081;DHT22;13991;51.174;4.438;2024-03-23T14:54:09;11.80;99.90
26081;DHT22;13991;51.174;4.438;2024-03-23T14:56:35;11.90;99.90
26081;DHT22;13991;51.174;4.438;2024-03-23T14:59:01;11.90;99.90
26081;DHT22;13991;51.174;4.438;2024-03-23T15:04:04;11.70;99.90
26081;DHT22;13991;51.174;4.438;2024-03-23T15:06:29;11.70;99.90
26081;DHT22;13991;51.174;4.438;2024-03-23T15:08:56;11.50;99.90
26081;DHT22;13991;51.174;4.438;2024-03-23T15:11:22;11.30;99.90
26081;DHT22;13991;51.174;4.438;2024-03-23T15:13:50;11.20;99.90
26081;DHT22;13991;51.174;4.438;2024-03-23T15:16:18;11.10;99.90
26081;DHT22;13991;51.174;4.438;2024-03-23T15:18:47;11.00;99.90
26081;DHT22;13991;51.174;4.438;2024-03-23T15:21:29;10.90;99.90
26081;DHT22;13991;51.174;4.438;2024-03-23T15:29:01;10.60;99.90
26081;DHT22;13991;51.174;4.438;2024-03-23T15:31:27;10.60;99.90
26081;DHT22;13991;51.174;4.438;2024-03-23T15:33:56;10.90;99.90
26081;DHT22;13991;51.174;4.438;2024-03-23T15:36:22;10.80;99.90
26081;DHT22;13991;51.174;4.438;2024-03-23T16:20:13;11.40;99.90
26081;DHT22;13991;51.174;4.438;2024-03-23T16:22:40;11.50;99.90
26081;DHT22;13991;51.174;4.438;2024-03-23T16:25:06;11.50;99.90
26081;DHT22;13991;51.174;4.438;2024-03-23T16:27:32;11.50;99.90
26081;DHT22;13991;51.174;4.438;2024-03-23T19:16:35;8.90;99.90
26081;DHT22;13991;51.174;4.438;2024-03-23T19:19:02;8.80;99.90
26081;DHT22;13991;51.174;4.438;2024-03-23T19:21:27;8.80;99.90
26081;DHT22;13991;51.174;4.438;2024-03-23T19:23:53;8.70;99.90
26081;DHT22;13991;51.174;4.438;2024-03-23T19:26:19;8.60;99.90
26081;DHT22;13991;51.174;4.438;2024-03-23T19:28:45;8.60;99.90
26081;DHT22;13991;51.174;4.438;2024-03-23T19:31:13;8.60;99.90
26081;DHT22;13991;51.174;4.438;2024-03-23T19:33:41;8.60;99.90
26081;DHT22;13991;51.174;4.438;2024-03-23T19:36:06;8.60;99.90
26081;DHT22;13991;51.174;4.438;2024-03-23T19:38:32;8.50;99.90
26081;DHT22;13991;51.174;4.438;2024-03-23T19:40:58;8.60;99.90
26081;DHT22;13991;51.174;4.438;2024-03-23T19:43:25;8.50;99.90
26081;DHT22;13991;51.174;4.438;2024-03-23T19:45:51;8.70;99.90
26081;DHT22;13991;51.174;4.438;2024-03-23T19:48:18;8.60;99.90
26081;DHT22;13991;51.174;4.438;2024-03-23T19:50:43;8.30;99.90
26081;DHT22;13991;51.174;4.438;2024-03-23T19:53:09;8.20;99.90
26081;DHT22;13991;51.174;4.438;2024-03-23T19:55:36;8.20;99.90
26081;DHT22;13991;51.174;4.438;2024-03-23T19:58:04;8.40;99.90
26081;DHT22;13991;51.174;4.438;2024-03-23T20:00:30;8.30;99.90
26081;DHT22;13991;51.174;4.438;2024-03-23T20:02:56;8.20;99.90
26081;DHT22;13991;51.174;4.438;2024-03-23T20:05:21;8.20;99.90
26081;DHT22;13991;51.174;4.438;2024-03-23T20:07:47;8.00;99.90
26081;DHT22;13991;51.174;4.438;2024-03-23T20:10:13;8.10;99.90
26081;DHT22;13991;51.174;4.438;2024-03-23T20:12:39;8.00;99.90
26081;DHT22;13991;51.174;4.438;2024-03-23T20:15:05;8.00;99.90
26081;DHT22;13991;51.174;4.438;2024-03-23T20:17:30;7.90;99.90
26081;DHT22;13991;51.174;4.438;2024-03-23T20:19:56;7.90;99.90
26081;DHT22;13991;51.174;4.438;2024-03-23T20:22:22;8.00;99.90
26081;DHT22;13991;51.174;4.438;2024-03-23T20:24:50;8.00;99.90
26081;DHT22;13991;51.174;4.438;2024-03-23T20:27:18;8.00;99.90
26081;DHT22;13991;51.174;4.438;2024-03-23T20:29:43;8.00;99.90
26081;DHT22;13991;51.174;4.438;2024-03-23T20:32:09;8.00;99.90
26081;DHT22;13991;51.174;4.438;2024-03-23T20:34:35;8.00;99.90
26081;DHT22;13991;51.174;4.438;2024-03-23T20:37:03;8.10;99.90
26081;DHT22;13991;51.174;4.438;2024-03-23T20:39:29;8.00;99.90
26081;DHT22;13991;51.174;4.438;2024-03-23T20:41:55;8.00;99.90
26081;DHT22;13991;51.174;4.438;2024-03-23T20:44:20;8.00;99.90
26081;DHT22;13991;51.174;4.438;2024-03-23T20:46:46;8.00;99.90
26081;DHT22;13991;51.174;4.438;2024-03-23T20:49:12;8.00;99.90
26081;DHT22;13991;51.174;4.438;2024-03-23T20:51:38;8.00;99.90
26081;DHT22;13991;51.174;4.438;2024-03-23T20:54:04;8.00;99.90
26081;DHT22;13991;51.174;4.438;2024-03-23T20:56:29;8.00;99.90
26081;DHT22;13991;51.174;4.438;2024-03-23T20:58:55;8.00;99.90
26081;DHT22;13991;51.174;4.438;2024-03-23T21:01:21;8.10;99.90
26081;DHT22;13991;51.174;4.438;2024-03-23T21:03:48;8.10;99.90
26081;DHT22;13991;51.174;4.438;2024-03-23T21:06:17;8.10;99.90
26081;DHT22;13991;51.174;4.438;2024-03-23T21:08:42;8.10;99.90
26081;DHT22;13991;51.174;4.438;2024-03-23T21:11:08;8.10;99.90
26081;DHT22;13991;51.174;4.438;2024-03-23T21:13:35;8.10;99.90
26081;DHT22;13991;51.174;4.438;2024-03-23T21:16:00;8.10;99.90
26081;DHT22;13991;51.174;4.438;2024-03-23T21:18:31;8.10;99.90
26081;DHT22;13991;51.174;4.438;2024-03-23T21:20:59;8.10;99.90
26081;DHT22;13991;51.174;4.438;2024-03-23T21:23:29;8.10;99.90
26081;DHT22;13991;51.174;4.438;2024-03-23T21:26:01;8.20;99.90
26081;DHT22;13991;51.174;4.438;2024-03-23T21:28:27;8.10;99.90
26081;DHT22;13991;51.174;4.438;2024-03-23T21:30:53;8.10;99.90
26081;DHT22;13991;51.174;4.438;2024-03-23T21:33:20;8.10;99.90
26081;DHT22;13991;51.174;4.438;2024-03-23T21:35:53;8.10;99.90